createdAt,value
2018-11-29T00:01:40.485Z,22.60
2018-11-29T00:04:11.591Z,22.60
2018-11-29T00:06:43.505Z,22.60
2018-11-29T00:09:15.489Z,22.60
2018-11-29T00:11:46.757Z,22.50
2018-11-29T00:14:18.820Z,22.50
2018-11-29T00:16:50.441Z,22.50
2018-11-29T00:19:21.453Z,22.50
2018-11-29T00:21:52.971Z,22.40
2018-11-29T00:24:24.142Z,22.40
2018-11-29T00:26:55.721Z,22.40
2018-11-29T00:29:26.733Z,22.40
2018-11-29T00:31:58.297Z,22.50
2018-11-29T00:34:29.442Z,22.40
2018-11-29T00:37:01.377Z,22.30
2018-11-29T00:39:32.649Z,22.30
2018-11-29T00:42:03.937Z,22.30
2018-11-29T00:44:35.057Z,22.20
2018-11-29T00:47:06.510Z,22.20
2018-11-29T00:49:37.588Z,22.20
2018-11-29T00:52:09.128Z,22.30
2018-11-29T00:54:40.284Z,22.30
2018-11-29T00:57:11.736Z,22.30
2018-11-29T00:59:42.785Z,22.20
2018-11-29T01:02:14.801Z,22.20
2018-11-29T01:04:46.165Z,22.20
2018-11-29T01:07:18.290Z,22.20
2018-11-29T01:09:50.281Z,22.20
2018-11-29T01:12:21.833Z,22.20
2018-11-29T01:14:53.086Z,22.10
2018-11-29T01:17:25.123Z,22.10
2018-11-29T01:19:56.237Z,22.00
2018-11-29T01:22:27.628Z,22.00
2018-11-29T01:24:58.860Z,22.00
2018-11-29T01:27:30.044Z,22.00
2018-11-29T01:30:01.459Z,22.00
2018-11-29T01:32:32.877Z,22.00
2018-11-29T01:35:04.141Z,21.90
2018-11-29T01:37:35.688Z,21.90
2018-11-29T01:40:08.290Z,21.90
2018-11-29T01:42:40.378Z,21.90
2018-11-29T01:45:11.604Z,21.90
2018-11-29T01:47:43.441Z,21.90
2018-11-29T01:50:14.657Z,22.00
2018-11-29T01:52:46.246Z,21.90
2018-11-29T01:55:17.317Z,21.90
2018-11-29T01:57:48.744Z,21.90
2018-11-29T02:00:20.939Z,21.80
2018-11-29T02:02:53.758Z,21.80
2018-11-29T02:05:24.837Z,21.80
2018-11-29T02:07:56.368Z,21.80
2018-11-29T02:10:33.299Z,21.90
2018-11-29T02:13:04.892Z,21.80
2018-11-29T02:15:36.078Z,21.80
2018-11-29T02:18:07.553Z,21.80
2018-11-29T02:20:39.211Z,21.80
2018-11-29T02:23:10.741Z,21.80
2018-11-29T02:25:41.857Z,21.70
2018-11-29T02:28:13.945Z,21.70
2018-11-29T02:30:45.071Z,21.70
2018-11-29T02:33:16.456Z,21.70
2018-11-29T02:35:47.873Z,21.70
2018-11-29T02:38:19.327Z,21.60
2018-11-29T02:40:50.458Z,21.60
2018-11-29T02:43:22.281Z,21.70
2018-11-29T02:45:53.419Z,21.60
2018-11-29T02:48:24.753Z,21.60
2018-11-29T02:50:56.137Z,21.60
2018-11-29T02:53:27.448Z,21.60
2018-11-29T02:55:58.688Z,21.50
2018-11-29T02:58:30.058Z,21.60
2018-11-29T03:01:02.212Z,21.50
2018-11-29T03:03:33.572Z,21.60
2018-11-29T03:06:04.670Z,21.60
2018-11-29T03:08:36.261Z,21.60
2018-11-29T03:11:09.145Z,21.70
2018-11-29T03:13:40.937Z,21.70
2018-11-29T03:16:12.664Z,21.70
2018-11-29T03:18:43.870Z,21.80
2018-11-29T03:21:15.156Z,21.90
2018-11-29T03:23:46.578Z,21.90
2018-11-29T03:26:17.811Z,22.00
2018-11-29T03:28:49.296Z,22.20
2018-11-29T03:31:20.440Z,22.40
2018-11-29T03:33:51.841Z,22.90
2018-11-29T03:36:23.157Z,23.80
2018-11-29T03:38:54.650Z,25.10
2018-11-29T03:41:25.857Z,26.30
2018-11-29T03:43:57.133Z,27.20
2018-11-29T03:46:28.407Z,28.00
2018-11-29T03:48:59.877Z,28.90
2018-11-29T03:51:31.256Z,29.50
2018-11-29T03:54:04.991Z,28.80
2018-11-29T03:56:36.371Z,27.80
2018-11-29T03:59:09.223Z,26.70
2018-11-29T04:01:40.049Z,26.10
2018-11-29T04:04:11.518Z,25.90
2018-11-29T04:06:43.074Z,25.80
2018-11-29T04:09:14.700Z,25.70
2018-11-29T04:11:47.101Z,25.80
2018-11-29T04:14:18.384Z,25.80
2018-11-29T04:16:49.496Z,25.80
2018-11-29T04:19:21.253Z,26.00
2018-11-29T04:21:52.379Z,26.00
2018-11-29T04:24:23.839Z,26.10
2018-11-29T04:26:54.861Z,26.20
2018-11-29T04:29:26.321Z,26.30
2018-11-29T04:31:57.363Z,26.40
2018-11-29T04:34:28.841Z,26.40
2018-11-29T04:36:59.952Z,26.30
2018-11-29T04:39:31.617Z,26.60
2018-11-29T04:42:02.813Z,27.00
2018-11-29T04:44:34.928Z,27.30
2018-11-29T04:47:06.178Z,27.50
2018-11-29T04:49:37.461Z,27.40
2018-11-29T04:52:08.705Z,27.10
2018-11-29T04:54:40.665Z,27.00
2018-11-29T04:57:11.805Z,26.80
2018-11-29T04:59:43.226Z,27.00
2018-11-29T05:02:14.301Z,27.30
2018-11-29T05:04:45.710Z,26.80
2018-11-29T05:07:16.851Z,27.20
2018-11-29T05:09:48.657Z,27.50
2018-11-29T05:12:20.901Z,27.50
2018-11-29T05:14:52.894Z,27.40
2018-11-29T05:17:24.652Z,27.40
2018-11-29T05:19:56.242Z,27.50
2018-11-29T05:22:27.497Z,27.50
2018-11-29T05:24:58.989Z,27.80
2018-11-29T05:27:30.179Z,27.40
2018-11-29T05:30:02.322Z,27.50
2018-11-29T05:32:33.567Z,27.80
2018-11-29T05:35:05.445Z,28.00
2018-11-29T05:37:36.557Z,28.30
2018-11-29T05:40:09.274Z,28.00
2018-11-29T05:42:40.329Z,27.90
2018-11-29T05:45:12.477Z,28.20
2018-11-29T05:47:43.469Z,28.40
2018-11-29T05:50:15.116Z,28.80
2018-11-29T05:52:46.065Z,29.30
2018-11-29T05:55:17.577Z,29.60
2018-11-29T05:57:48.598Z,29.10
2018-11-29T06:00:20.259Z,28.70
2018-11-29T06:02:51.712Z,28.90
2018-11-29T06:05:23.557Z,28.80
2018-11-29T06:07:54.746Z,28.20
2018-11-29T06:10:26.029Z,28.50
2018-11-29T06:12:58.188Z,28.70
2018-11-29T06:15:29.981Z,28.50
2018-11-29T06:18:00.870Z,28.20
2018-11-29T06:20:32.417Z,27.90
2018-11-29T06:23:05.265Z,27.50
2018-11-29T06:25:36.666Z,27.80
2018-11-29T06:28:08.997Z,28.00
2018-11-29T06:30:40.657Z,28.10
2018-11-29T06:33:11.696Z,28.40
2018-11-29T06:35:43.265Z,28.50
2018-11-29T06:38:14.280Z,28.60
2018-11-29T06:40:45.749Z,28.40
2018-11-29T06:43:16.880Z,28.20
2018-11-29T06:45:48.385Z,28.00
2018-11-29T06:48:19.900Z,28.20
2018-11-29T06:50:51.173Z,28.30
2018-11-29T06:53:26.868Z,28.60
2018-11-29T06:55:58.597Z,28.80
2018-11-29T06:58:29.537Z,28.80
2018-11-29T07:01:01.054Z,28.80
2018-11-29T07:03:32.048Z,28.80
2018-11-29T07:06:04.006Z,28.80
2018-11-29T07:08:34.908Z,28.90
2018-11-29T07:11:07.784Z,29.00
2018-11-29T07:13:40.666Z,28.90
2018-11-29T07:16:12.293Z,29.10
2018-11-29T07:18:43.381Z,29.20
2018-11-29T07:21:24.860Z,29.20
2018-11-29T07:23:56.023Z,28.90
2018-11-29T07:26:27.965Z,28.60
2018-11-29T07:28:59.109Z,28.90
2018-11-29T07:31:30.512Z,29.20
2018-11-29T07:34:02.333Z,29.30
2018-11-29T07:36:33.896Z,29.50
2018-11-29T07:39:05.408Z,29.10
2018-11-29T07:41:36.629Z,29.40
2018-11-29T07:44:08.449Z,29.50
2018-11-29T07:46:40.121Z,29.60
2018-11-29T07:49:11.371Z,29.70
2018-11-29T07:51:42.745Z,29.70
2018-11-29T07:54:13.924Z,29.50
2018-11-29T07:56:45.557Z,29.70
2018-11-29T07:59:16.780Z,29.90
2018-11-29T08:01:48.023Z,30.00
2018-11-29T08:04:19.246Z,30.00
2018-11-29T08:06:50.584Z,30.00
2018-11-29T08:09:21.804Z,30.00
2018-11-29T08:11:53.165Z,29.80
2018-11-29T08:14:25.276Z,29.80
2018-11-29T08:16:57.621Z,29.70
2018-11-29T08:19:28.857Z,29.30
2018-11-29T08:22:00.526Z,28.90
2018-11-29T08:24:31.740Z,29.00
2018-11-29T08:27:03.240Z,28.80
2018-11-29T08:29:35.163Z,28.60
2018-11-29T08:32:07.014Z,28.70
2018-11-29T08:34:38.130Z,28.80
2018-11-29T08:37:09.425Z,28.50
2018-11-29T08:39:40.556Z,28.60
2018-11-29T08:42:12.045Z,28.60
2018-11-29T08:44:43.209Z,28.50
2018-11-29T08:47:14.524Z,28.60
2018-11-29T08:49:45.696Z,28.50
2018-11-29T08:52:17.134Z,28.60
2018-11-29T08:54:48.445Z,28.60
2018-11-29T08:57:19.569Z,28.60
2018-11-29T08:59:50.546Z,28.70
2018-11-29T09:02:22.021Z,28.50
2018-11-29T09:04:53.677Z,28.40
2018-11-29T09:07:25.120Z,28.40
2018-11-29T09:09:56.083Z,28.50
2018-11-29T09:12:27.612Z,28.50
2018-11-29T09:14:59.413Z,28.50
2018-11-29T09:17:30.945Z,28.50
2018-11-29T09:20:02.167Z,28.50
2018-11-29T09:22:34.047Z,28.40
2018-11-29T09:25:05.298Z,28.30
2018-11-29T09:27:36.894Z,28.50
2018-11-29T09:30:14.738Z,28.50
2018-11-29T09:32:46.481Z,28.40
2018-11-29T09:35:17.583Z,28.70
2018-11-29T09:37:49.011Z,28.80
2018-11-29T09:40:20.494Z,29.10
2018-11-29T09:42:52.422Z,29.10
2018-11-29T09:45:24.148Z,29.10
2018-11-29T09:47:57.105Z,29.10
2018-11-29T09:50:28.451Z,29.00
2018-11-29T09:53:00.154Z,28.90
2018-11-29T09:55:31.481Z,29.00
2018-11-29T09:58:03.329Z,29.10
2018-11-29T10:00:34.765Z,29.00
2018-11-29T10:03:11.977Z,29.00
2018-11-29T10:05:44.094Z,29.10
2018-11-29T10:08:17.655Z,29.00
2018-11-29T10:10:48.903Z,28.90
2018-11-29T10:13:20.033Z,28.90
2018-11-29T10:15:51.869Z,28.90
2018-11-29T10:18:23.197Z,28.80
2018-11-29T10:20:54.437Z,28.60
2018-11-29T10:23:25.780Z,28.70
2018-11-29T10:25:56.913Z,28.60
2018-11-29T10:28:28.345Z,28.60
2018-11-29T10:31:01.657Z,28.60
2018-11-29T10:33:33.009Z,28.50
2018-11-29T10:36:05.661Z,28.50
2018-11-29T10:38:37.209Z,28.40
2018-11-29T10:41:08.641Z,28.30
2018-11-29T10:43:40.460Z,28.30
2018-11-29T10:46:12.994Z,28.20
2018-11-29T10:48:44.573Z,28.20
2018-11-29T10:51:15.673Z,28.20
2018-11-29T10:53:47.265Z,28.30
2018-11-29T10:56:18.301Z,28.40
2018-11-29T10:58:49.986Z,28.30
2018-11-29T11:02:26.085Z,28.30
2018-11-29T11:04:57.589Z,28.30
2018-11-29T11:07:28.922Z,28.20
2018-11-29T11:10:00.377Z,28.10
2018-11-29T11:12:31.797Z,28.00
2018-11-29T11:15:04.009Z,28.00
2018-11-29T11:17:36.097Z,28.20
2018-11-29T11:20:07.789Z,28.40
2018-11-29T11:22:39.053Z,28.50
2018-11-29T11:25:11.434Z,28.50
2018-11-29T11:27:42.509Z,28.40
2018-11-29T11:30:16.898Z,28.30
2018-11-29T11:32:48.670Z,28.30
2018-11-29T11:35:20.185Z,28.30
2018-11-29T11:37:51.556Z,28.30
2018-11-29T11:40:22.941Z,28.20
2018-11-29T11:42:54.005Z,28.10
2018-11-29T11:45:25.478Z,28.10
2018-11-29T11:48:02.932Z,28.20
2018-11-29T11:50:28.245Z,28.00
2018-11-29T11:52:59.213Z,27.90
2018-11-29T11:55:30.874Z,27.90
2018-11-29T11:58:02.300Z,27.80
2018-11-29T12:00:34.174Z,27.70
2018-11-29T12:03:10.869Z,27.70
2018-11-29T12:05:42.260Z,27.60
2018-11-29T12:08:13.566Z,27.50
2018-11-29T12:10:45.709Z,27.50
2018-11-29T12:13:16.909Z,27.50
2018-11-29T12:15:48.221Z,27.40
2018-11-29T12:18:20.299Z,27.30
2018-11-29T12:20:51.920Z,27.30
2018-11-29T12:23:22.905Z,27.40
2018-11-29T12:25:54.421Z,27.30
2018-11-29T12:28:25.436Z,27.40
2018-11-29T12:30:57.208Z,27.30
2018-11-29T12:33:28.302Z,27.20
2018-11-29T12:35:59.953Z,27.20
2018-11-29T12:38:30.946Z,27.20
2018-11-29T12:41:02.479Z,27.20
2018-11-29T12:43:33.675Z,27.10
2018-11-29T12:46:07.733Z,27.00
2018-11-29T12:48:39.817Z,27.00
2018-11-29T12:51:11.539Z,27.10
2018-11-29T12:53:42.912Z,27.00
2018-11-29T12:56:14.280Z,27.00
2018-11-29T12:58:45.577Z,27.00
2018-11-29T13:01:16.949Z,26.90
2018-11-29T13:03:48.279Z,26.90
2018-11-29T13:06:19.586Z,27.00
2018-11-29T13:08:54.872Z,26.90
2018-11-29T13:11:26.287Z,26.80
2018-11-29T13:13:57.245Z,26.80
2018-11-29T13:16:28.924Z,26.80
2018-11-29T13:19:01.808Z,26.80
2018-11-29T13:21:33.572Z,26.90
2018-11-29T13:24:05.147Z,27.00
2018-11-29T13:26:36.641Z,26.90
2018-11-29T13:29:07.681Z,26.80
2018-11-29T13:31:39.751Z,26.80
2018-11-29T13:34:10.957Z,26.80
2018-11-29T13:36:42.517Z,26.80
2018-11-29T13:39:14.855Z,26.80
2018-11-29T13:41:46.418Z,26.70
2018-11-29T13:44:18.177Z,26.70
2018-11-29T13:46:49.609Z,26.60
2018-11-29T13:49:20.631Z,26.60
2018-11-29T13:51:52.293Z,26.60
2018-11-29T13:54:23.358Z,26.60
2018-11-29T13:56:55.137Z,26.60
2018-11-29T13:59:26.485Z,26.60
2018-11-29T14:01:58.546Z,26.60
2018-11-29T14:04:29.693Z,26.60
2018-11-29T14:07:00.973Z,26.50
2018-11-29T14:09:31.981Z,26.50
2018-11-29T14:12:04.433Z,26.50
2018-11-29T14:14:35.537Z,26.40
2018-11-29T14:17:08.599Z,26.40
2018-11-29T14:19:40.784Z,26.40
2018-11-29T14:22:12.469Z,26.40
2018-11-29T14:24:43.640Z,26.40
2018-11-29T14:27:15.423Z,26.30
2018-11-29T14:29:46.582Z,26.30
2018-11-29T14:32:17.890Z,26.30
2018-11-29T14:34:51.707Z,26.30
2018-11-29T14:37:20.886Z,26.40
2018-11-29T14:39:52.101Z,26.40
2018-11-29T14:42:23.493Z,26.40
2018-11-29T14:44:54.713Z,26.40
2018-11-29T14:47:26.509Z,26.40
2018-11-29T14:49:57.697Z,26.30
2018-11-29T14:52:29.564Z,26.30
2018-11-29T14:55:00.796Z,26.30
2018-11-29T14:57:32.205Z,26.30
2018-11-29T15:00:03.405Z,26.30
2018-11-29T15:02:35.021Z,26.20
2018-11-29T15:05:08.757Z,26.30
2018-11-29T15:07:40.340Z,26.20
2018-11-29T15:10:12.005Z,26.20
2018-11-29T15:12:43.121Z,26.20
2018-11-29T15:15:15.367Z,26.20
2018-11-29T15:17:47.884Z,26.20
2018-11-29T15:20:24.805Z,26.20
2018-11-29T15:22:56.192Z,26.10
2018-11-29T15:25:27.469Z,26.10
2018-11-29T15:27:59.285Z,26.10
2018-11-29T15:30:30.839Z,26.10
2018-11-29T15:33:02.473Z,26.00
2018-11-29T15:35:33.677Z,26.10
2018-11-29T15:38:05.133Z,26.10
2018-11-29T15:40:36.498Z,26.10
2018-11-29T15:43:08.261Z,26.10
2018-11-29T15:45:39.467Z,26.00
2018-11-29T15:48:10.972Z,26.00
2018-11-29T15:50:46.103Z,26.00
2018-11-29T15:53:18.385Z,26.00
2018-11-29T15:55:49.481Z,26.00
2018-11-29T15:58:20.932Z,26.00
2018-11-29T16:00:52.171Z,25.90
2018-11-29T16:03:23.844Z,25.90
2018-11-29T16:05:54.968Z,25.90
2018-11-29T16:08:26.201Z,26.00
2018-11-29T16:10:57.330Z,25.90
2018-11-29T16:13:28.741Z,25.90
2018-11-29T16:15:59.990Z,25.90
2018-11-29T16:18:31.141Z,25.80
2018-11-29T16:21:03.185Z,25.80
2018-11-29T16:23:34.494Z,25.90
2018-11-29T16:26:06.460Z,25.90
2018-11-29T16:28:38.269Z,25.80
2018-11-29T16:31:10.253Z,25.90
2018-11-29T16:33:42.033Z,25.90
2018-11-29T16:36:13.101Z,25.80
2018-11-29T16:38:44.724Z,25.80
2018-11-29T16:41:15.848Z,25.80
2018-11-29T16:43:47.370Z,25.80
2018-11-29T16:46:18.437Z,25.70
2018-11-29T16:48:49.951Z,25.80
2018-11-29T16:51:21.017Z,25.80
2018-11-29T16:53:52.803Z,25.80
2018-11-29T16:56:24.921Z,25.80
2018-11-29T16:58:56.505Z,25.80
2018-11-29T17:01:27.723Z,25.80
2018-11-29T17:03:59.387Z,25.70
2018-11-29T17:06:30.620Z,25.80
2018-11-29T17:09:02.294Z,25.70
2018-11-29T17:11:33.456Z,25.60
2018-11-29T17:14:04.992Z,25.70
2018-11-29T17:16:36.061Z,25.60
2018-11-29T17:19:07.446Z,25.70
2018-11-29T17:21:40.473Z,25.60
2018-11-29T17:24:12.636Z,25.60
2018-11-29T17:26:43.885Z,25.50
2018-11-29T17:29:15.361Z,25.50
2018-11-29T17:31:46.790Z,25.50
2018-11-29T17:34:18.247Z,25.50
2018-11-29T17:36:49.529Z,25.60
2018-11-29T17:39:20.825Z,25.50
2018-11-29T17:41:52.161Z,25.40
2018-11-29T17:44:23.382Z,25.50
2018-11-29T17:46:54.718Z,25.40
2018-11-29T17:49:26.982Z,25.40
2018-11-29T17:51:58.112Z,25.40
2018-11-29T17:54:29.931Z,25.40
2018-11-29T17:57:00.901Z,25.40
2018-11-29T17:59:32.389Z,25.40
2018-11-29T18:02:05.777Z,25.30
2018-11-29T18:04:37.716Z,25.20
2018-11-29T18:07:09.373Z,25.20
2018-11-29T18:09:41.028Z,25.10
2018-11-29T18:12:12.381Z,25.10
2018-11-29T18:14:43.841Z,25.10
2018-11-29T18:17:15.231Z,25.10
2018-11-29T18:19:46.504Z,25.10
2018-11-29T18:22:18.631Z,25.10
2018-11-29T18:24:50.192Z,25.10
2018-11-29T18:27:21.809Z,24.90
2018-11-29T18:29:53.721Z,25.00
2018-11-29T18:32:24.988Z,25.00
2018-11-29T18:34:56.793Z,24.90
2018-11-29T18:37:27.825Z,24.90
2018-11-29T18:39:59.176Z,24.90
2018-11-29T18:42:30.526Z,24.90
2018-11-29T18:45:01.969Z,24.80
2018-11-29T18:47:33.199Z,24.90
2018-11-29T18:50:04.673Z,24.90
2018-11-29T18:52:35.814Z,24.90
2018-11-29T18:55:07.116Z,24.80
2018-11-29T18:57:38.373Z,24.70
2018-11-29T19:00:12.642Z,24.70
2018-11-29T19:02:44.008Z,24.70
2018-11-29T19:05:15.412Z,24.70
2018-11-29T19:07:46.617Z,24.60
2018-11-29T19:10:20.184Z,24.60
2018-11-29T19:12:54.063Z,24.60
2018-11-29T19:15:25.852Z,24.60
2018-11-29T19:17:57.223Z,24.60
2018-11-29T19:20:29.093Z,24.70
2018-11-29T19:23:01.664Z,24.60
2018-11-29T19:25:32.889Z,24.70
2018-11-29T19:28:04.136Z,24.60
2018-11-29T19:30:35.332Z,24.60
2018-11-29T19:33:17.494Z,24.50
2018-11-29T19:35:49.417Z,24.50
2018-11-29T19:38:20.521Z,24.40
2018-11-29T19:40:51.844Z,24.50
2018-11-29T19:43:23.064Z,24.40
2018-11-29T19:45:54.431Z,24.40
2018-11-29T19:48:25.515Z,24.40
2018-11-29T19:50:56.904Z,24.30
2018-11-29T19:53:28.522Z,24.30
2018-11-29T19:56:01.457Z,24.30
2018-11-29T19:58:32.626Z,24.30
2018-11-29T20:01:05.844Z,24.30
2018-11-29T20:03:36.811Z,24.20
2018-11-29T20:06:08.339Z,24.20
2018-11-29T20:08:39.592Z,24.20
2018-11-29T20:11:11.625Z,24.20
2018-11-29T20:13:42.545Z,24.10
2018-11-29T20:16:13.793Z,24.10
2018-11-29T20:18:44.997Z,24.10
2018-11-29T20:21:17.023Z,24.10
2018-11-29T20:23:49.513Z,24.10
2018-11-29T20:26:20.749Z,24.00
2018-11-29T20:28:51.964Z,23.90
2018-11-29T20:31:23.252Z,23.90
2018-11-29T20:33:54.437Z,23.80
2018-11-29T20:36:25.597Z,23.80
2018-11-29T20:38:57.017Z,23.70
2018-11-29T20:41:28.562Z,23.80
2018-11-29T20:43:59.797Z,23.70
2018-11-29T20:46:31.648Z,23.70
2018-11-29T20:49:04.284Z,23.70
2018-11-29T20:51:35.622Z,23.70
2018-11-29T20:54:06.749Z,23.80
2018-11-29T20:56:38.156Z,23.80
2018-11-29T20:59:09.444Z,23.70
2018-11-29T21:01:40.920Z,23.60
2018-11-29T21:04:12.063Z,23.60
2018-11-29T21:06:43.505Z,23.50
2018-11-29T21:09:15.301Z,23.30
2018-11-29T21:11:47.922Z,23.30
2018-11-29T21:14:18.153Z,23.30
2018-11-29T21:16:49.668Z,23.30
2018-11-29T21:19:20.761Z,23.30
2018-11-29T21:21:52.293Z,23.20
2018-11-29T21:24:24.862Z,23.20
2018-11-29T21:26:56.269Z,23.20
2018-11-29T21:29:27.626Z,23.20
2018-11-29T21:31:59.124Z,23.20
2018-11-29T21:34:30.113Z,23.20
2018-11-29T21:37:01.699Z,23.20
2018-11-29T21:39:32.867Z,23.10
2018-11-29T21:42:04.841Z,23.10
2018-11-29T21:44:36.151Z,23.20
2018-11-29T21:47:07.553Z,23.10
2018-11-29T21:49:38.821Z,23.10
2018-11-29T21:52:10.839Z,23.10
2018-11-29T21:54:41.987Z,23.00
2018-11-29T21:57:13.387Z,23.00
2018-11-29T21:59:44.584Z,22.90
2018-11-29T22:02:16.002Z,23.00
2018-11-29T22:04:47.093Z,23.00
2018-11-29T22:07:18.936Z,22.90
2018-11-29T22:09:50.166Z,22.90
2018-11-29T22:12:21.489Z,22.90
2018-11-29T22:14:52.695Z,22.80
2018-11-29T22:17:24.462Z,22.80
2018-11-29T22:19:59.594Z,22.90
2018-11-29T22:22:31.965Z,22.80
2018-11-29T22:25:04.602Z,22.80
2018-11-29T22:27:36.669Z,22.80
2018-11-29T22:30:09.068Z,22.70
2018-11-29T22:32:40.885Z,22.80
2018-11-29T22:35:12.057Z,22.70
2018-11-29T22:37:43.619Z,22.70
2018-11-29T22:40:14.922Z,22.70
2018-11-29T22:42:46.277Z,22.60
2018-11-29T22:45:17.556Z,22.60
2018-11-29T22:47:49.850Z,22.60
2018-11-29T22:50:21.074Z,22.60
2018-11-29T22:52:52.620Z,22.50
2018-11-29T22:55:23.798Z,22.60
2018-11-29T22:57:55.353Z,22.60
2018-11-29T23:00:26.962Z,22.60
2018-11-29T23:02:58.680Z,22.50
2018-11-29T23:05:30.053Z,22.50
2018-11-29T23:08:02.546Z,22.50
2018-11-29T23:10:33.608Z,22.60
2018-11-29T23:13:05.908Z,22.60
2018-11-29T23:15:37.165Z,22.60
2018-11-29T23:18:08.828Z,22.60
2018-11-29T23:20:40.297Z,22.50
2018-11-29T23:23:11.901Z,22.50
2018-11-29T23:25:44.091Z,22.40
2018-11-29T23:28:15.426Z,22.40
2018-11-29T23:30:46.588Z,22.50
2018-11-29T23:33:17.768Z,22.50
2018-11-29T23:35:49.084Z,22.50
2018-11-29T23:38:20.577Z,22.60
2018-11-29T23:40:51.835Z,22.50
2018-11-29T23:43:23.847Z,22.50
2018-11-29T23:45:54.965Z,22.50
2018-11-29T23:48:26.605Z,22.50
2018-11-29T23:50:58.203Z,22.50
2018-11-29T23:53:29.741Z,22.40
2018-11-29T23:56:00.817Z,22.50
2018-11-29T23:58:32.381Z,22.50
